createdAt,value
2023-03-18T00:01:23.817Z,89.10
2023-03-18T00:03:51.770Z,89.30
2023-03-18T00:06:21.943Z,89.50
2023-03-18T00:08:52.534Z,89.60
2023-03-18T00:11:22.220Z,89.60
2023-03-18T00:13:50.194Z,89.70
2023-03-18T00:16:18.620Z,89.80
2023-03-18T00:18:47.016Z,89.90
2023-03-18T00:21:16.810Z,90.00
2023-03-18T00:23:44.855Z,90.10
2023-03-18T00:26:14.342Z,90.10
2023-03-18T00:28:42.293Z,90.20
2023-03-18T00:31:13.612Z,90.20
2023-03-18T00:33:45.694Z,90.30
2023-03-18T00:36:15.026Z,90.40
2023-03-18T00:38:44.256Z,90.40
2023-03-18T00:41:15.932Z,90.50
2023-03-18T00:43:52.518Z,90.50
2023-03-18T00:46:23.516Z,90.60
2023-03-18T00:48:53.077Z,90.60
2023-03-18T00:51:22.683Z,90.60
2023-03-18T00:53:52.962Z,90.70
2023-03-18T00:56:24.111Z,90.80
2023-03-18T00:58:53.868Z,90.90
2023-03-18T01:01:22.662Z,90.80
2023-03-18T01:03:51.423Z,90.90
2023-03-18T01:06:23.207Z,91.00
2023-03-18T01:08:51.836Z,91.00
2023-03-18T01:11:19.974Z,91.10
2023-03-18T01:13:49.580Z,91.10
2023-03-18T01:16:18.146Z,91.20
2023-03-18T01:18:46.709Z,91.20
2023-03-18T01:21:15.558Z,91.30
2023-03-18T01:23:43.547Z,91.30
2023-03-18T01:26:11.746Z,91.40
2023-03-18T01:28:39.807Z,91.40
2023-03-18T01:31:09.339Z,91.50
2023-03-18T01:33:37.567Z,91.60
2023-03-18T01:36:06.460Z,91.60
2023-03-18T01:38:35.087Z,91.60
2023-03-18T01:41:03.364Z,91.70
2023-03-18T01:43:34.177Z,91.70
2023-03-18T01:46:23.514Z,91.80
2023-03-18T01:48:53.202Z,91.90
2023-03-18T01:51:22.954Z,91.90
2023-03-18T01:53:51.915Z,92.00
2023-03-18T01:56:20.934Z,92.40
2023-03-18T01:58:53.188Z,92.10
2023-03-18T02:01:26.295Z,92.20
2023-03-18T02:03:56.629Z,92.30
2023-03-18T02:06:24.687Z,92.30
2023-03-18T02:08:52.891Z,92.40
2023-03-18T02:13:52.552Z,92.50
2023-03-18T02:16:25.643Z,92.60
2023-03-18T02:18:58.501Z,92.70
2023-03-18T02:21:57.777Z,92.70
2023-03-18T02:24:42.387Z,92.80
2023-03-18T02:27:19.098Z,92.90
2023-03-18T02:29:49.487Z,93.00
2023-03-18T02:32:18.854Z,93.00
2023-03-18T02:34:46.934Z,93.10
2023-03-18T02:37:15.444Z,93.20
2023-03-18T02:39:43.407Z,93.20
2023-03-18T02:42:13.803Z,93.30
2023-03-18T02:44:46.892Z,93.40
2023-03-18T02:47:18.152Z,93.50
2023-03-18T02:49:46.428Z,93.60
2023-03-18T02:52:14.390Z,93.60
2023-03-18T02:54:42.645Z,93.70
2023-03-18T02:57:10.809Z,93.80
2023-03-18T02:59:38.850Z,93.80
2023-03-18T03:02:08.200Z,93.90
2023-03-18T03:04:36.727Z,93.90
2023-03-18T03:07:04.804Z,94.00
2023-03-18T03:09:32.737Z,94.10
2023-03-18T03:12:00.991Z,94.20
2023-03-18T03:14:29.091Z,94.20
2023-03-18T03:16:58.004Z,94.30
2023-03-18T03:19:27.426Z,94.40
2023-03-18T03:21:55.518Z,94.50
2023-03-18T03:24:23.639Z,94.50
2023-03-18T03:26:51.564Z,94.60
2023-03-18T03:29:20.434Z,94.70
2023-03-18T03:31:48.378Z,94.60
2023-03-18T03:34:16.434Z,94.70
2023-03-18T03:36:45.826Z,94.80
2023-03-18T03:39:14.013Z,94.80
2023-03-18T03:41:42.049Z,94.90
2023-03-18T03:44:10.056Z,94.90
2023-03-18T03:46:38.167Z,95.00
2023-03-18T03:49:06.704Z,95.00
2023-03-18T03:51:34.751Z,95.00
2023-03-18T03:54:04.191Z,95.10
2023-03-18T03:56:32.461Z,95.10
2023-03-18T03:59:01.590Z,95.20
2023-03-18T04:01:29.608Z,95.20
2023-03-18T04:03:57.726Z,95.20
2023-03-18T04:06:25.839Z,95.30
2023-03-18T04:08:53.761Z,95.40
2023-03-18T04:11:23.048Z,95.40
2023-03-18T04:13:51.021Z,95.50
2023-03-18T04:16:19.125Z,95.80
2023-03-18T04:18:47.196Z,95.60
2023-03-18T04:21:15.329Z,95.60
2023-03-18T04:23:43.283Z,95.70
2023-03-18T04:26:13.390Z,95.70
2023-03-18T04:28:42.763Z,95.80
2023-03-18T04:31:10.869Z,95.80
2023-03-18T04:33:38.842Z,95.90
2023-03-18T04:36:07.439Z,95.90
2023-03-18T04:38:35.394Z,96.00
2023-03-18T04:41:03.561Z,96.00
2023-03-18T04:43:31.531Z,96.10
2023-03-18T04:46:00.854Z,96.10
2023-03-18T04:48:28.826Z,96.20
2023-03-18T04:50:57.104Z,96.30
2023-03-18T04:53:25.562Z,96.30
2023-03-18T04:55:53.492Z,96.30
2023-03-18T04:58:21.429Z,96.40
2023-03-18T05:00:49.390Z,96.50
2023-03-18T05:03:18.733Z,96.60
2023-03-18T05:05:46.698Z,96.70
2023-03-18T05:08:15.286Z,96.70
2023-03-18T05:10:43.769Z,96.80
2023-03-18T05:13:11.749Z,96.90
2023-03-18T05:15:39.720Z,97.00
2023-03-18T05:18:08.423Z,97.00
2023-03-18T05:20:37.692Z,97.10
2023-03-18T05:23:06.022Z,97.10
2023-03-18T05:25:34.151Z,97.20
2023-03-18T05:28:02.551Z,97.30
2023-03-18T05:30:30.518Z,97.40
2023-03-18T05:32:58.520Z,97.40
2023-03-18T05:35:26.492Z,97.50
2023-03-18T05:37:56.410Z,97.60
2023-03-18T05:40:24.550Z,97.60
2023-03-18T05:42:56.245Z,97.60
2023-03-18T05:45:25.170Z,97.70
2023-03-18T05:47:53.625Z,97.70
2023-03-18T05:50:30.048Z,97.80
2023-03-18T05:52:59.629Z,97.90
2023-03-18T05:55:28.438Z,97.80
2023-03-18T05:57:56.769Z,97.90
2023-03-18T06:00:25.728Z,97.90
2023-03-18T06:02:53.976Z,97.90
2023-03-18T06:05:22.662Z,97.90
2023-03-18T06:07:50.562Z,97.90
2023-03-18T06:10:20.812Z,97.90
2023-03-18T06:12:49.326Z,97.90
2023-03-18T06:15:17.398Z,97.90
2023-03-18T06:17:45.764Z,97.90
2023-03-18T06:20:15.720Z,97.80
2023-03-18T06:22:48.947Z,97.80
2023-03-18T06:25:19.788Z,97.80
2023-03-18T06:27:48.094Z,97.80
2023-03-18T06:30:17.487Z,97.70
2023-03-18T06:32:45.686Z,97.70
2023-03-18T06:35:14.705Z,97.70
2023-03-18T06:37:42.862Z,97.70
2023-03-18T06:40:12.638Z,97.80
2023-03-18T06:42:42.231Z,97.80
2023-03-18T06:45:11.026Z,97.80
2023-03-18T06:47:39.398Z,97.90
2023-03-18T06:50:07.795Z,97.90
2023-03-18T06:52:37.114Z,98.00
2023-03-18T06:55:06.509Z,98.10
2023-03-18T06:57:34.668Z,98.00
2023-03-18T07:00:05.732Z,98.00
2023-03-18T07:02:33.689Z,98.10
2023-03-18T07:05:01.898Z,98.00
2023-03-18T07:07:29.862Z,98.10
2023-03-18T07:09:57.951Z,97.90
2023-03-18T07:12:26.656Z,98.00
2023-03-18T07:14:54.605Z,98.00
2023-03-18T07:17:24.407Z,98.30
2023-03-18T07:19:52.753Z,97.90
2023-03-18T07:22:21.316Z,97.70
2023-03-18T07:24:49.431Z,97.60
2023-03-18T07:27:17.351Z,97.40
2023-03-18T07:29:45.547Z,97.30
2023-03-18T07:32:13.916Z,97.10
2023-03-18T07:34:43.562Z,97.00
2023-03-18T07:37:11.896Z,96.60
2023-03-18T07:39:39.851Z,96.50
2023-03-18T07:42:09.643Z,96.50
2023-03-18T07:44:37.837Z,96.30
2023-03-18T07:47:05.933Z,96.10
2023-03-18T07:49:33.903Z,96.10
2023-03-18T07:52:03.924Z,96.00
2023-03-18T07:54:31.827Z,95.80
2023-03-18T07:56:59.737Z,95.80
2023-03-18T07:59:27.897Z,95.80
2023-03-18T08:01:55.805Z,96.30
2023-03-18T08:04:23.929Z,96.00
2023-03-18T08:06:51.920Z,95.90
2023-03-18T08:09:21.189Z,95.60
2023-03-18T08:11:49.175Z,95.30
2023-03-18T08:14:17.632Z,95.20
2023-03-18T08:16:45.829Z,95.20
2023-03-18T08:19:13.747Z,95.10
2023-03-18T08:21:42.897Z,94.80
2023-03-18T08:24:11.254Z,94.80
2023-03-18T08:26:40.579Z,94.70
2023-03-18T08:29:08.489Z,94.20
2023-03-18T08:31:36.553Z,94.10
2023-03-18T08:34:04.578Z,94.00
2023-03-18T08:36:32.715Z,94.10
2023-03-18T08:39:00.784Z,94.10
2023-03-18T08:41:28.747Z,94.10
2023-03-18T08:43:59.077Z,94.10
2023-03-18T08:46:27.200Z,94.10
2023-03-18T08:48:55.431Z,93.90
2023-03-18T08:51:23.502Z,93.70
2023-03-18T08:53:51.420Z,93.70
2023-03-18T08:56:19.453Z,93.70
2023-03-18T08:58:48.373Z,93.50
2023-03-18T09:01:18.043Z,93.40
2023-03-18T09:03:46.972Z,93.40
2023-03-18T09:06:15.132Z,93.10
2023-03-18T09:08:43.811Z,92.90
2023-03-18T09:11:11.846Z,92.90
2023-03-18T09:13:39.820Z,93.20
2023-03-18T09:16:08.472Z,92.80
2023-03-18T09:18:39.724Z,92.70
2023-03-18T09:21:08.006Z,92.50
2023-03-18T09:23:36.816Z,92.20
2023-03-18T09:26:05.463Z,92.30
2023-03-18T09:28:33.502Z,92.10
2023-03-18T09:31:01.864Z,92.00
2023-03-18T09:33:29.963Z,91.80
2023-03-18T09:35:59.317Z,91.70
2023-03-18T09:38:27.746Z,91.60
2023-03-18T09:41:08.559Z,91.30
2023-03-18T09:43:54.677Z,91.00
2023-03-18T09:46:33.243Z,90.80
2023-03-18T09:49:16.398Z,90.80
2023-03-18T09:51:57.772Z,91.10
2023-03-18T09:54:34.803Z,90.70
2023-03-18T09:57:04.426Z,90.50
2023-03-18T09:59:39.419Z,90.40
2023-03-18T10:02:21.639Z,90.20
2023-03-18T10:04:54.163Z,89.20
2023-03-18T10:07:27.288Z,89.20
2023-03-18T10:09:59.544Z,88.40
2023-03-18T10:12:33.733Z,87.80
2023-03-18T10:15:14.138Z,87.20
2023-03-18T10:17:45.509Z,86.70
2023-03-18T10:20:19.222Z,85.60
2023-03-18T10:22:57.586Z,85.30
2023-03-18T10:25:29.872Z,85.70
2023-03-18T10:28:33.532Z,85.90
2023-03-18T10:31:12.233Z,86.00
2023-03-18T10:33:48.854Z,85.60
2023-03-18T10:36:20.814Z,85.10
2023-03-18T10:38:52.122Z,84.50
2023-03-18T10:41:24.956Z,83.80
2023-03-18T10:43:55.863Z,83.70
2023-03-18T10:46:26.988Z,83.90
2023-03-18T10:48:59.460Z,84.40
2023-03-18T10:51:33.477Z,84.10
2023-03-18T10:54:11.468Z,82.70
2023-03-18T10:56:39.778Z,82.20
2023-03-18T10:59:15.316Z,81.60
2023-03-18T11:01:46.023Z,81.60
2023-03-18T11:04:16.745Z,81.70
2023-03-18T11:06:48.177Z,81.20
2023-03-18T11:09:20.333Z,81.20
2023-03-18T11:11:49.720Z,81.80
2023-03-18T11:14:21.022Z,81.80
2023-03-18T11:16:51.117Z,80.80
2023-03-18T11:19:29.826Z,80.70
2023-03-18T11:22:06.916Z,80.70
2023-03-18T11:24:39.644Z,80.80
2023-03-18T11:27:29.817Z,81.00
2023-03-18T11:30:00.555Z,81.30
2023-03-18T11:32:31.459Z,81.50
2023-03-18T11:35:01.742Z,81.40
2023-03-18T11:37:32.894Z,81.10
2023-03-18T11:40:18.516Z,81.20
2023-03-18T11:42:48.047Z,80.90
2023-03-18T11:45:44.584Z,81.10
2023-03-18T11:48:19.103Z,80.90
2023-03-18T11:51:07.111Z,81.20
2023-03-18T11:53:49.458Z,80.50
2023-03-18T11:56:28.349Z,80.20
2023-03-18T11:59:22.335Z,80.40
2023-03-18T12:01:59.744Z,80.60
2023-03-18T12:04:46.184Z,80.60
2023-03-18T12:07:26.556Z,79.80
2023-03-18T12:10:04.388Z,78.70
2023-03-18T12:12:49.297Z,78.30
2023-03-18T12:15:25.891Z,78.20
2023-03-18T12:18:04.174Z,78.10
2023-03-18T12:20:50.545Z,78.20
2023-03-18T12:23:34.231Z,78.00
2023-03-18T12:26:06.383Z,78.20
2023-03-18T12:28:47.025Z,78.40
2023-03-18T12:31:43.150Z,78.50
2023-03-18T12:34:22.520Z,78.50
2023-03-18T12:37:05.764Z,78.50
2023-03-18T12:39:58.433Z,78.40
2023-03-18T12:42:45.426Z,78.00
2023-03-18T12:45:20.608Z,78.10
2023-03-18T12:47:51.992Z,78.30
2023-03-18T12:50:21.953Z,78.70
2023-03-18T12:52:54.159Z,78.70
2023-03-18T12:55:27.889Z,78.70
2023-03-18T12:58:00.342Z,78.70
2023-03-18T13:00:35.756Z,78.90
2023-03-18T13:03:11.080Z,78.90
2023-03-18T13:05:48.089Z,79.00
2023-03-18T13:08:48.820Z,79.00
2023-03-18T13:11:33.171Z,79.00
2023-03-18T13:14:07.834Z,78.70
2023-03-18T13:16:39.319Z,78.70
2023-03-18T13:19:07.476Z,78.50
2023-03-18T13:21:41.373Z,78.50
2023-03-18T13:24:31.907Z,78.70
2023-03-18T13:27:17.764Z,78.50
2023-03-18T13:29:55.323Z,78.40
2023-03-18T13:32:39.242Z,78.20
2023-03-18T13:35:27.257Z,78.20
2023-03-18T13:38:09.907Z,78.10
2023-03-18T13:40:56.198Z,78.30
2023-03-18T13:43:26.299Z,78.00
2023-03-18T13:45:56.048Z,77.50
2023-03-18T13:48:30.526Z,76.60
2023-03-18T13:50:59.947Z,76.40
2023-03-18T13:53:30.492Z,76.30
2023-03-18T13:56:05.324Z,76.10
2023-03-18T13:58:36.722Z,75.80
2023-03-18T14:01:32.995Z,75.70
2023-03-18T14:04:18.829Z,75.30
2023-03-18T14:06:54.625Z,75.30
2023-03-18T14:09:36.641Z,75.00
2023-03-18T14:12:19.835Z,75.30
2023-03-18T14:15:08.179Z,75.30
2023-03-18T14:17:48.789Z,75.10
2023-03-18T14:20:40.753Z,74.90
2023-03-18T14:23:34.807Z,74.80
2023-03-18T14:26:05.882Z,74.90
2023-03-18T14:28:46.445Z,75.20
2023-03-18T14:31:37.048Z,75.50
2023-03-18T14:34:27.975Z,75.80
2023-03-18T14:37:30.312Z,76.00
2023-03-18T14:40:07.237Z,76.30
2023-03-18T14:42:53.692Z,76.40
2023-03-18T14:45:27.297Z,76.50
2023-03-18T14:47:56.750Z,76.60
2023-03-18T14:50:33.126Z,76.70
2023-03-18T14:53:10.956Z,76.90
2023-03-18T14:55:40.404Z,76.80
2023-03-18T14:58:16.703Z,76.90
2023-03-18T15:00:45.933Z,76.90
2023-03-18T15:03:20.844Z,76.90
2023-03-18T15:05:50.403Z,76.90
2023-03-18T15:08:26.355Z,76.70
2023-03-18T15:10:57.322Z,76.50
2023-03-18T15:13:26.754Z,76.10
2023-03-18T15:15:56.905Z,76.00
2023-03-18T15:18:28.711Z,76.30
2023-03-18T15:21:01.283Z,76.40
2023-03-18T15:23:35.003Z,76.70
2023-03-18T15:26:04.371Z,76.90
2023-03-18T15:28:33.710Z,77.10
2023-03-18T15:31:05.067Z,77.20
2023-03-18T15:33:37.146Z,77.40
2023-03-18T15:36:07.799Z,77.50
2023-03-18T15:38:37.442Z,77.60
2023-03-18T15:41:08.202Z,78.50
2023-03-18T15:43:42.182Z,77.90
2023-03-18T15:46:18.089Z,78.20
2023-03-18T15:48:54.499Z,78.30
2023-03-18T15:51:29.969Z,78.30
2023-03-18T15:54:04.461Z,78.60
2023-03-18T15:56:35.453Z,78.80
2023-03-18T15:59:09.029Z,79.00
2023-03-18T16:01:37.240Z,79.00
2023-03-18T16:04:10.245Z,79.40
2023-03-18T16:06:38.690Z,79.30
2023-03-18T16:09:17.176Z,79.40
2023-03-18T16:11:48.493Z,79.50
2023-03-18T16:14:18.810Z,79.70
2023-03-18T16:16:47.052Z,79.90
2023-03-18T16:19:16.702Z,80.10
2023-03-18T16:21:45.628Z,80.40
2023-03-18T16:24:16.957Z,80.70
2023-03-18T16:26:46.179Z,80.90
2023-03-18T16:29:18.752Z,81.20
2023-03-18T16:31:46.803Z,81.60
2023-03-18T16:34:21.785Z,81.70
2023-03-18T16:36:50.821Z,82.00
2023-03-18T16:39:21.916Z,82.20
2023-03-18T16:41:49.988Z,82.60
2023-03-18T16:44:19.488Z,82.90
2023-03-18T16:46:49.847Z,83.20
2023-03-18T16:49:21.305Z,83.50
2023-03-18T16:51:49.638Z,83.70
2023-03-18T16:54:24.173Z,83.90
2023-03-18T16:56:54.805Z,84.30
2023-03-18T16:59:23.198Z,84.70
2023-03-18T17:01:51.554Z,85.00
2023-03-18T17:04:24.663Z,85.40
2023-03-18T17:06:53.112Z,85.70
2023-03-18T17:09:23.279Z,86.10
2023-03-18T17:11:53.056Z,86.50
2023-03-18T17:14:30.924Z,86.90
2023-03-18T17:17:00.575Z,87.50
2023-03-18T17:19:29.395Z,88.00
2023-03-18T17:21:57.357Z,88.50
2023-03-18T17:24:27.228Z,88.90
2023-03-18T17:26:55.458Z,89.30
2023-03-18T17:29:25.170Z,89.50
2023-03-18T17:31:53.484Z,89.80
2023-03-18T17:34:22.704Z,89.90
2023-03-18T17:36:51.087Z,90.00
2023-03-18T17:39:19.400Z,90.10
2023-03-18T17:41:48.720Z,90.20
2023-03-18T17:44:26.627Z,90.30
2023-03-18T17:46:56.049Z,90.50
2023-03-18T17:49:26.502Z,90.60
2023-03-18T17:51:56.217Z,90.80
2023-03-18T17:54:27.177Z,91.10
2023-03-18T17:56:56.477Z,91.20
2023-03-18T17:59:24.627Z,91.80
2023-03-18T18:01:52.753Z,91.50
2023-03-18T18:04:23.186Z,91.70
2023-03-18T18:06:51.368Z,91.90
2023-03-18T18:09:20.477Z,92.00
2023-03-18T18:11:50.856Z,92.50
2023-03-18T18:14:22.542Z,92.20
2023-03-18T18:16:51.256Z,92.30
2023-03-18T18:19:19.500Z,92.40
2023-03-18T18:21:49.132Z,92.50
2023-03-18T18:24:22.549Z,92.60
2023-03-18T18:26:50.949Z,92.80
2023-03-18T18:29:23.558Z,92.90
2023-03-18T18:31:52.254Z,93.00
2023-03-18T18:34:21.334Z,93.10
2023-03-18T18:36:49.765Z,93.30
2023-03-18T18:39:18.177Z,93.40
2023-03-18T18:41:46.690Z,93.60
2023-03-18T18:44:14.871Z,93.70
2023-03-18T18:46:44.276Z,93.80
2023-03-18T18:49:22.101Z,94.00
2023-03-18T18:51:50.652Z,94.20
2023-03-18T18:54:19.614Z,94.20
2023-03-18T18:56:47.748Z,94.40
2023-03-18T18:59:24.432Z,94.40
2023-03-18T19:01:54.161Z,94.50
2023-03-18T19:04:23.794Z,94.60
2023-03-18T19:06:52.857Z,94.70
2023-03-18T19:09:23.763Z,94.80
2023-03-18T19:11:53.470Z,95.00
2023-03-18T19:14:24.750Z,95.10
2023-03-18T19:16:55.677Z,95.20
2023-03-18T19:19:28.513Z,95.30
2023-03-18T19:21:57.514Z,95.50
2023-03-18T19:24:27.719Z,95.50
2023-03-18T19:26:57.409Z,95.70
2023-03-18T19:29:26.717Z,96.30
2023-03-18T19:31:56.355Z,96.10
2023-03-18T19:34:25.117Z,96.30
2023-03-18T19:36:55.930Z,96.50
2023-03-18T19:39:24.809Z,96.80
2023-03-18T19:41:52.832Z,97.00
2023-03-18T19:44:22.772Z,97.30
2023-03-18T19:46:53.147Z,97.40
2023-03-18T19:49:26.531Z,97.60
2023-03-18T19:51:55.361Z,97.80
2023-03-18T19:54:31.503Z,97.90
2023-03-18T19:57:01.359Z,98.10
2023-03-18T19:59:38.314Z,98.30
2023-03-18T20:02:19.969Z,98.50
2023-03-18T20:04:49.496Z,98.80
2023-03-18T20:07:18.750Z,98.80
2023-03-18T20:09:46.942Z,99.00
2023-03-18T20:12:24.817Z,99.00
2023-03-18T20:14:53.309Z,99.30
2023-03-18T20:17:34.424Z,99.40
2023-03-18T20:20:03.990Z,99.60
2023-03-18T20:22:33.948Z,99.70
2023-03-18T20:25:02.177Z,99.80
2023-03-18T20:27:30.599Z,99.90
2023-03-18T20:29:59.005Z,99.90
2023-03-18T20:32:27.011Z,99.90
2023-03-18T20:34:54.932Z,99.90
2023-03-18T20:37:30.908Z,99.90
2023-03-18T20:39:58.901Z,99.90
2023-03-18T20:42:26.961Z,99.90
2023-03-18T20:44:54.869Z,99.90
2023-03-18T20:47:23.055Z,99.90
2023-03-18T20:49:50.991Z,99.90
2023-03-18T20:52:28.729Z,99.90
2023-03-18T20:54:57.669Z,99.90
2023-03-18T20:57:26.174Z,99.90
2023-03-18T20:59:54.163Z,99.90
2023-03-18T21:02:30.609Z,99.90
2023-03-18T21:05:00.100Z,99.90
2023-03-18T21:07:31.099Z,99.90
2023-03-18T21:09:59.073Z,99.90
2023-03-18T21:12:27.232Z,99.90
2023-03-18T21:14:55.171Z,99.90
2023-03-18T21:17:25.150Z,99.90
2023-03-18T21:19:54.915Z,99.90
2023-03-18T21:22:25.987Z,99.90
2023-03-18T21:24:55.913Z,99.90
2023-03-18T21:27:26.622Z,99.90
2023-03-18T21:29:57.897Z,99.90
2023-03-18T21:32:28.369Z,99.90
2023-03-18T21:34:57.352Z,99.90
2023-03-18T21:37:27.229Z,99.90
2023-03-18T21:39:56.657Z,99.90
2023-03-18T21:42:27.246Z,99.90
2023-03-18T21:44:56.503Z,99.90
2023-03-18T21:47:26.195Z,99.90
2023-03-18T21:49:54.332Z,99.90
2023-03-18T21:52:28.349Z,99.90
2023-03-18T21:54:57.979Z,99.90
2023-03-18T21:57:26.590Z,99.90
2023-03-18T21:59:55.037Z,99.90
2023-03-18T22:02:30.072Z,99.90
2023-03-18T22:04:59.901Z,99.90
2023-03-18T22:07:29.497Z,99.90
2023-03-18T22:10:00.666Z,99.90
2023-03-18T22:12:30.335Z,99.90
2023-03-18T22:14:59.354Z,99.90
2023-03-18T22:17:28.576Z,99.90
2023-03-18T22:19:57.487Z,99.90
2023-03-18T22:22:27.503Z,99.90
2023-03-18T22:24:55.822Z,99.90
2023-03-18T22:27:27.893Z,99.90
2023-03-18T22:29:58.011Z,99.90
2023-03-18T22:32:36.593Z,99.90
2023-03-18T22:35:06.390Z,99.90
2023-03-18T22:37:34.711Z,99.90
2023-03-18T22:40:02.727Z,99.90
2023-03-18T22:42:32.108Z,99.90
2023-03-18T22:45:00.197Z,99.90
2023-03-18T22:47:28.187Z,99.90
2023-03-18T22:49:56.192Z,99.90
2023-03-18T22:52:26.488Z,99.90
2023-03-18T22:54:56.868Z,99.90
2023-03-18T22:57:27.213Z,99.90
2023-03-18T22:59:58.310Z,99.90
2023-03-18T23:02:28.685Z,99.90
2023-03-18T23:04:57.629Z,99.90
2023-03-18T23:07:29.090Z,99.90
2023-03-18T23:09:58.534Z,99.90
2023-03-18T23:12:27.764Z,99.90
2023-03-18T23:14:57.907Z,99.90
2023-03-18T23:17:27.825Z,99.90
2023-03-18T23:19:57.485Z,99.90
2023-03-18T23:22:28.353Z,99.90
2023-03-18T23:24:56.849Z,99.90
2023-03-18T23:27:27.028Z,99.90
2023-03-18T23:29:56.954Z,99.90
2023-03-18T23:32:25.539Z,99.90
2023-03-18T23:34:56.728Z,99.90
2023-03-18T23:37:24.696Z,99.90
2023-03-18T23:39:52.717Z,99.90
2023-03-18T23:42:22.469Z,99.90
2023-03-18T23:44:50.629Z,99.90
2023-03-18T23:47:19.900Z,99.90
2023-03-18T23:49:48.126Z,99.90
2023-03-18T23:52:16.721Z,99.90
2023-03-18T23:54:44.744Z,99.90
2023-03-18T23:57:13.071Z,99.90
2023-03-18T23:59:41.223Z,99.90
